createdAt,value
2022-11-05T07:43:03.323Z,89.00
2022-11-05T07:45:31.232Z,89.00
2022-11-05T07:48:03.608Z,87.70
2022-11-05T07:50:35.420Z,86.50
2022-11-05T07:53:12.220Z,87.90
2022-11-05T07:55:41.587Z,86.80
2022-11-05T07:58:09.038Z,85.20
2022-11-05T08:00:36.402Z,86.50
2022-11-05T08:03:09.153Z,86.70
2022-11-05T08:05:39.290Z,86.30
2022-11-05T08:08:11.177Z,86.30
2022-11-05T08:10:38.882Z,86.10
2022-11-05T08:13:06.636Z,85.70
2022-11-05T08:15:33.985Z,85.50
2022-11-05T08:18:03.206Z,84.30
2022-11-05T08:20:30.691Z,83.40
2022-11-05T08:22:58.046Z,84.00
2022-11-05T08:25:25.514Z,84.80
2022-11-05T08:28:11.990Z,85.80
2022-11-05T08:30:39.027Z,86.50
2022-11-05T08:33:12.044Z,87.00
2022-11-05T08:35:40.146Z,87.10
2022-11-05T08:38:13.586Z,87.10
2022-11-05T08:40:41.235Z,87.20
2022-11-05T08:43:10.791Z,87.20
2022-11-05T08:45:38.717Z,87.10
2022-11-05T08:48:14.994Z,86.90
2022-11-05T08:50:44.629Z,86.30
2022-11-05T08:53:12.529Z,86.50
2022-11-05T08:55:39.566Z,84.80
2022-11-05T08:58:10.659Z,84.80
2022-11-05T09:00:38.455Z,84.20
2022-11-05T09:03:07.076Z,84.70
2022-11-05T09:05:37.887Z,83.20
2022-11-05T09:08:09.922Z,82.50
2022-11-05T09:10:37.485Z,84.40
2022-11-05T09:13:04.557Z,82.40
2022-11-05T09:15:32.164Z,83.90
2022-11-05T09:17:59.655Z,79.10
2022-11-05T09:20:26.510Z,80.50
2022-11-05T09:22:53.396Z,88.10
2022-11-05T09:25:20.480Z,81.90
2022-11-05T09:27:47.359Z,82.00
2022-11-05T09:30:14.462Z,82.10
2022-11-05T09:32:42.806Z,81.00
2022-11-05T09:35:09.917Z,80.50
2022-11-05T09:37:39.654Z,79.40
2022-11-05T09:40:07.218Z,79.80
2022-11-05T09:42:46.954Z,77.40
2022-11-05T09:45:19.807Z,75.90
2022-11-05T09:48:05.082Z,76.30
2022-11-05T09:50:44.187Z,76.50
2022-11-05T09:53:17.518Z,77.60
2022-11-05T09:55:49.343Z,76.70
2022-11-05T09:58:40.937Z,77.20
2022-11-05T10:01:17.371Z,78.30
2022-11-05T10:03:48.150Z,78.90
2022-11-05T10:06:23.628Z,78.00
2022-11-05T10:09:17.992Z,77.90
2022-11-05T10:11:49.918Z,78.20
2022-11-05T10:14:19.685Z,78.30
2022-11-05T10:16:53.187Z,78.40
2022-11-05T10:19:24.672Z,77.90
2022-11-05T10:22:10.202Z,78.30
2022-11-05T10:24:38.582Z,78.40
2022-11-05T10:27:06.212Z,77.30
2022-11-05T10:29:35.298Z,78.40
2022-11-05T10:32:05.834Z,78.30
2022-11-05T10:34:36.798Z,78.60
2022-11-05T10:37:04.379Z,78.30
2022-11-05T10:39:33.868Z,78.20
2022-11-05T10:42:00.663Z,77.30
2022-11-05T10:44:58.371Z,76.90
2022-11-05T10:47:44.643Z,75.40
2022-11-05T10:50:17.056Z,75.80
2022-11-05T10:52:56.257Z,76.00
2022-11-05T10:55:25.372Z,75.30
2022-11-05T10:57:52.779Z,75.50
2022-11-05T11:00:21.932Z,75.10
2022-11-05T11:02:53.417Z,75.00
2022-11-05T11:05:25.553Z,74.90
2022-11-05T11:07:59.809Z,76.00
2022-11-05T11:10:27.525Z,75.20
2022-11-05T11:12:56.319Z,74.30
2022-11-05T11:15:29.414Z,74.40
2022-11-05T11:17:56.984Z,76.00
2022-11-05T11:20:27.493Z,75.30
2022-11-05T11:23:13.117Z,74.90
2022-11-05T11:26:00.643Z,73.70
2022-11-05T11:28:40.387Z,72.80
2022-11-05T11:31:16.445Z,72.70
2022-11-05T11:33:47.734Z,73.60
2022-11-05T11:36:24.303Z,73.30
2022-11-05T11:38:51.925Z,72.10
2022-11-05T11:41:35.945Z,69.70
2022-11-05T11:44:08.546Z,70.40
2022-11-05T11:46:35.504Z,70.40
2022-11-05T11:49:03.129Z,70.60
2022-11-05T11:51:34.250Z,70.70
2022-11-05T11:54:02.309Z,71.70
2022-11-05T11:56:30.421Z,70.80
2022-11-05T11:59:04.248Z,71.20
2022-11-05T12:02:01.084Z,70.70
2022-11-05T12:05:01.883Z,69.80
2022-11-05T12:07:36.633Z,70.00
2022-11-05T12:10:17.681Z,70.00
2022-11-05T12:13:04.671Z,71.10
2022-11-05T12:15:43.704Z,72.10
2022-11-05T12:18:39.251Z,72.80
2022-11-05T12:21:52.534Z,73.30
2022-11-05T12:24:38.636Z,73.90
2022-11-05T12:27:32.924Z,74.50
2022-11-05T12:30:14.054Z,73.30
2022-11-05T12:32:59.027Z,71.50
2022-11-05T12:36:02.522Z,73.30
2022-11-05T12:38:57.093Z,74.40
2022-11-05T12:41:30.227Z,73.20
2022-11-05T12:44:16.376Z,75.10
2022-11-05T12:47:07.541Z,77.50
2022-11-05T12:50:00.015Z,76.70
2022-11-05T12:53:00.028Z,76.10
2022-11-05T12:55:33.629Z,74.80
2022-11-05T12:58:11.655Z,73.40
2022-11-05T13:00:42.166Z,72.20
2022-11-05T13:03:46.720Z,73.20
2022-11-05T13:06:23.189Z,72.80
2022-11-05T13:09:21.162Z,74.10
2022-11-05T13:11:57.273Z,72.40
2022-11-05T13:14:48.378Z,72.10
2022-11-05T13:17:22.556Z,70.80
2022-11-05T13:20:17.311Z,70.10
2022-11-05T13:22:55.321Z,68.40
2022-11-05T13:25:28.160Z,71.20
2022-11-05T13:28:27.184Z,73.50
2022-11-05T13:31:01.444Z,73.70
2022-11-05T13:33:33.393Z,71.90
2022-11-05T13:36:42.534Z,73.40
2022-11-05T13:39:30.253Z,77.10
2022-11-05T13:42:21.499Z,75.50
2022-11-05T13:45:00.195Z,76.30
2022-11-05T13:47:42.217Z,81.40
2022-11-05T13:50:30.551Z,74.80
2022-11-05T13:53:21.792Z,72.60
2022-11-05T13:56:18.066Z,72.80
2022-11-05T13:59:11.423Z,71.80
2022-11-05T14:01:49.999Z,72.80
2022-11-05T14:04:27.522Z,71.00
2022-11-05T14:07:04.699Z,72.10
2022-11-05T14:09:35.454Z,72.00
2022-11-05T14:12:04.587Z,72.30
2022-11-05T14:14:43.094Z,71.90
2022-11-05T14:17:09.875Z,72.40
2022-11-05T14:19:51.912Z,73.10
2022-11-05T14:22:33.773Z,73.70
2022-11-05T14:25:22.534Z,73.60
2022-11-05T14:27:52.058Z,72.70
2022-11-05T14:30:42.533Z,73.20
2022-11-05T14:33:26.629Z,73.50
2022-11-05T14:36:14.491Z,74.10
2022-11-05T14:38:51.059Z,74.30
2022-11-05T14:41:19.154Z,74.20
2022-11-05T14:44:01.626Z,73.80
2022-11-05T14:46:46.890Z,74.50
2022-11-05T14:49:23.306Z,74.60
2022-11-05T14:51:52.575Z,74.60
2022-11-05T14:54:34.439Z,74.90
2022-11-05T14:57:02.571Z,74.90
2022-11-05T14:59:31.463Z,75.30
2022-11-05T15:02:04.271Z,75.10
2022-11-05T15:04:42.598Z,75.20
2022-11-05T15:07:09.317Z,75.40
2022-11-05T15:09:44.982Z,75.70
2022-11-05T15:12:30.238Z,76.00
2022-11-05T15:15:21.310Z,75.70
2022-11-05T15:18:06.065Z,75.90
2022-11-05T15:20:41.062Z,76.40
2022-11-05T15:23:13.938Z,76.50
2022-11-05T15:26:02.738Z,76.80
2022-11-05T15:28:48.008Z,76.90
2022-11-05T15:31:17.537Z,76.90
2022-11-05T15:33:50.342Z,77.20
2022-11-05T15:36:25.137Z,77.90
2022-11-05T15:39:15.513Z,77.80
2022-11-05T15:41:39.186Z,77.90
2022-11-05T15:44:05.961Z,78.00
2022-11-05T15:46:32.926Z,78.50
2022-11-05T15:49:06.589Z,79.10
2022-11-05T15:51:35.541Z,80.80
2022-11-05T15:56:57.982Z,83.50
2022-11-05T15:59:26.915Z,84.20
2022-11-05T16:02:02.037Z,84.80
2022-11-05T16:04:32.105Z,85.00
2022-11-05T16:07:06.621Z,85.80
2022-11-05T16:09:36.505Z,87.10
2022-11-05T16:12:18.601Z,87.80
2022-11-05T16:14:57.610Z,87.50
2022-11-05T16:17:31.453Z,87.20
2022-11-05T16:19:58.345Z,87.10
2022-11-05T16:22:25.891Z,87.70
2022-11-05T16:24:52.681Z,87.90
2022-11-05T16:27:22.901Z,88.30
2022-11-05T16:29:55.990Z,88.60
2022-11-05T16:32:31.217Z,89.20
2022-11-05T16:35:04.689Z,89.50
2022-11-05T16:37:38.113Z,89.90
2022-11-05T16:40:17.065Z,89.10
2022-11-05T16:42:48.214Z,89.90
2022-11-05T16:45:16.837Z,90.50
2022-11-05T16:47:44.937Z,90.90
2022-11-05T16:50:25.099Z,90.90
2022-11-05T16:52:52.234Z,91.00
2022-11-05T16:55:19.462Z,90.90
2022-11-05T16:57:51.109Z,90.70
2022-11-05T17:00:19.956Z,90.50
2022-11-05T17:02:47.315Z,90.50
2022-11-05T17:05:32.285Z,90.70
2022-11-05T17:08:01.154Z,90.90
2022-11-05T17:10:27.997Z,91.20
2022-11-05T17:12:55.371Z,91.20
2022-11-05T17:15:35.451Z,91.20
2022-11-05T17:18:06.035Z,91.00
2022-11-05T17:20:41.528Z,91.10
2022-11-05T17:23:29.897Z,91.40
2022-11-05T17:26:01.942Z,91.20
2022-11-05T17:28:29.449Z,91.30
2022-11-05T17:30:59.673Z,91.50
2022-11-05T17:33:26.801Z,91.20
2022-11-05T17:38:39.354Z,90.90
2022-11-05T17:41:13.885Z,90.90
2022-11-05T17:43:41.289Z,90.70
2022-11-05T17:46:16.001Z,90.50
2022-11-05T17:48:43.117Z,90.50
2022-11-05T17:51:11.897Z,91.00
2022-11-05T17:53:38.894Z,91.60
2022-11-05T17:56:13.102Z,91.90
2022-11-05T17:58:40.879Z,92.10
2022-11-05T18:01:09.114Z,92.30
2022-11-05T18:03:36.082Z,92.30
2022-11-05T18:06:06.730Z,92.20
2022-11-05T18:08:33.882Z,92.10
2022-11-05T18:11:00.620Z,92.20
2022-11-05T18:13:27.507Z,91.70
2022-11-05T18:15:55.085Z,92.70
2022-11-05T18:18:22.139Z,91.70
2022-11-05T18:20:49.104Z,91.90
2022-11-05T18:23:15.974Z,91.70
2022-11-05T18:25:43.344Z,92.10
2022-11-05T18:28:10.438Z,92.40
2022-11-05T18:30:38.879Z,92.80
2022-11-05T18:33:05.801Z,93.20
2022-11-05T18:35:32.586Z,93.10
2022-11-05T18:38:01.554Z,93.10
2022-11-05T18:40:28.901Z,93.00
2022-11-05T18:42:55.742Z,92.70
2022-11-05T18:45:28.414Z,92.50
2022-11-05T18:48:00.234Z,92.40
2022-11-05T18:50:27.895Z,92.60
2022-11-05T18:52:54.752Z,92.90
2022-11-05T18:55:21.872Z,93.20
2022-11-05T18:57:48.861Z,93.20
2022-11-05T19:00:16.483Z,93.00
2022-11-05T19:02:45.393Z,92.80
2022-11-05T19:05:28.548Z,92.90
2022-11-05T19:07:56.346Z,92.70
2022-11-05T19:10:23.163Z,92.70
2022-11-05T19:12:53.696Z,93.00
2022-11-05T19:15:20.491Z,93.10
2022-11-05T19:17:47.349Z,93.20
2022-11-05T19:20:14.256Z,93.20
2022-11-05T19:22:41.022Z,93.30
2022-11-05T19:25:08.248Z,93.30
2022-11-05T19:27:35.951Z,93.60
2022-11-05T19:30:03.898Z,93.70
2022-11-05T19:32:30.747Z,93.80
2022-11-05T19:34:57.583Z,93.60
2022-11-05T19:37:24.410Z,93.80
2022-11-05T19:39:52.109Z,93.50
2022-11-05T19:42:18.984Z,93.30
2022-11-05T19:44:45.746Z,93.40
2022-11-05T19:47:12.589Z,93.70
2022-11-05T19:49:39.380Z,93.70
2022-11-05T19:52:06.737Z,93.70
2022-11-05T19:54:35.510Z,93.30
2022-11-05T19:57:02.320Z,93.00
2022-11-05T19:59:29.192Z,92.60
2022-11-05T20:01:56.114Z,92.30
2022-11-05T20:04:26.073Z,92.50
2022-11-05T20:06:52.940Z,92.70
2022-11-05T20:09:22.131Z,93.20
2022-11-05T20:11:56.702Z,93.80
2022-11-05T20:14:25.688Z,93.80
2022-11-05T20:16:52.902Z,93.70
2022-11-05T20:19:21.176Z,93.30
2022-11-05T20:21:48.539Z,92.90
2022-11-05T20:24:23.623Z,92.60
2022-11-05T20:26:53.794Z,92.90
2022-11-05T20:29:20.987Z,92.80
2022-11-05T20:31:50.142Z,92.80
2022-11-05T20:34:16.997Z,93.10
2022-11-05T20:36:43.831Z,93.30
2022-11-05T20:39:11.995Z,93.40
2022-11-05T20:41:38.910Z,93.50
2022-11-05T20:44:05.915Z,93.70
2022-11-05T20:46:33.929Z,93.80
2022-11-05T20:49:00.766Z,93.90
2022-11-05T20:51:27.533Z,93.80
2022-11-05T20:53:59.545Z,94.60
2022-11-05T20:56:31.808Z,94.60
2022-11-05T20:58:59.785Z,94.30
2022-11-05T21:01:29.270Z,93.50
2022-11-05T21:03:56.754Z,93.40
2022-11-05T21:06:26.681Z,93.00
2022-11-05T21:08:53.949Z,92.70
2022-11-05T21:11:21.013Z,93.00
2022-11-05T21:13:50.876Z,93.50
2022-11-05T21:16:19.110Z,93.40
2022-11-05T21:18:46.333Z,93.70
2022-11-05T21:21:18.806Z,94.00
2022-11-05T21:23:45.997Z,94.10
2022-11-05T21:26:14.390Z,94.20
2022-11-05T21:28:41.603Z,94.30
2022-11-05T21:31:09.611Z,94.10
2022-11-05T21:33:36.942Z,93.70
2022-11-05T21:36:11.532Z,93.50
2022-11-05T21:38:39.235Z,93.40
2022-11-05T21:41:08.059Z,93.10
2022-11-05T21:43:34.932Z,92.70
2022-11-05T21:46:03.457Z,92.70
2022-11-05T21:48:31.149Z,93.40
2022-11-05T21:51:16.561Z,93.60
2022-11-05T21:54:02.008Z,93.80
2022-11-05T21:56:47.514Z,93.20
2022-11-05T21:59:39.070Z,93.10
2022-11-05T22:02:07.496Z,92.90
2022-11-05T22:04:37.241Z,92.60
2022-11-05T22:07:05.016Z,91.80
2022-11-05T22:09:31.934Z,92.70
2022-11-05T22:11:59.582Z,92.40
